Observation data for Roaring Springs on 06/03/2020      Previous  Date  Next       Current Mesonet Observations  Soil Data  Daily Summary Page  Observations in Plain Language
KRRS 030500Z 17009KT 23/18 A3006 RMK A01 T02260176  RH  077%=      5-min Rain = 0
KRRS 030505Z 17009KT 23/18 A3006 RMK A01 T02250176  RH  078%=      5-min Rain = 0
KRRS 030510Z 17009KT 22/18 A3006 RMK A01 T02240176  RH  078%=      5-min Rain = 0
KRRS 030515Z 17009KT 22/18 A3005 RMK A01 T02240176  RH  078%=      5-min Rain = 0
KRRS 030520Z 17009KT 22/18 A3005 RMK A01 T02240176  RH  078%=      5-min Rain = 0
KRRS 030525Z 17009KT 22/18 A3005 RMK A01 T02230175  RH  078%=      5-min Rain = 0
KRRS 030530Z 18008KT 22/18 A3006 RMK A01 T02210175  RH  079%=      5-min Rain = 0
KRRS 030535Z 18009KT 22/18 A3006 RMK A01 T02200175  RH  079%=      5-min Rain = 0
KRRS 030540Z 18009KT 22/18 A3006 RMK A01 T02210175  RH  079%=      5-min Rain = 0
KRRS 030545Z 18009KT 22/18 A3005 RMK A01 T02200175  RH  079%=      5-min Rain = 0
KRRS 030550Z 19009KT 22/17 A3005 RMK A01 T02190174  RH  080%=      5-min Rain = 0
KRRS 030555Z 19009KT 22/17 A3005 RMK A01 T02190174  RH  080%=      5-min Rain = 0
KRRS 030600Z 19010KT 22/17 A3005 RMK A01 T02190174  RH  079%=      5-min Rain = 0
KRRS 030605Z 19010KT 22/17 A3005 RMK A01 T02200173  RH  079%=      5-min Rain = 0
KRRS 030610Z 19010KT 22/17 A3005 RMK A01 T02200173  RH  079%=      5-min Rain = 0
KRRS 030615Z 19009KT 22/17 A3005 RMK A01 T02190173  RH  079%=      5-min Rain = 0
KRRS 030620Z 19009KT 22/17 A3005 RMK A01 T02180173  RH  079%=      5-min Rain = 0
KRRS 030625Z 19009KT 22/17 A3005 RMK A01 T02170173  RH  080%=      5-min Rain = 0
KRRS 030630Z 19009KT 22/17 A3005 RMK A01 T02160172  RH  080%=      5-min Rain = 0
KRRS 030635Z 19009KT 22/17 A3004 RMK A01 T02160172  RH  080%=      5-min Rain = 0
KRRS 030640Z 19009KT 22/17 A3004 RMK A01 T02150172  RH  080%=      5-min Rain = 0
KRRS 030645Z 19009KT 22/17 A3004 RMK A01 T02160172  RH  080%=      5-min Rain = 0
KRRS 030650Z 19009KT 22/17 A3004 RMK A01 T02160172  RH  080%=      5-min Rain = 0
KRRS 030655Z 19010KT 22/17 A3004 RMK A01 T02160172  RH  080%=      5-min Rain = 0
KRRS 030700Z 19009KT 22/17 A3004 RMK A01 T02150172  RH  080%=      5-min Rain = 0
KRRS 030705Z 19009KT 22/17 A3003 RMK A01 T02150172  RH  080%=      5-min Rain = 0
KRRS 030710Z 19009KT 21/17 A3003 RMK A01 T02140171  RH  081%=      5-min Rain = 0
KRRS 030715Z 19009KT 21/17 A3003 RMK A01 T02130171  RH  081%=      5-min Rain = 0
KRRS 030720Z 20009KT 21/17 A3003 RMK A01 T02120171  RH  082%=      5-min Rain = 0
KRRS 030725Z 19009KT 21/17 A3003 RMK A01 T02110171  RH  082%=      5-min Rain = 0
KRRS 030730Z 19009KT 21/17 A3003 RMK A01 T02110171  RH  082%=      5-min Rain = 0
KRRS 030735Z 19010KT 21/17 A3003 RMK A01 T02110172  RH  082%=      5-min Rain = 0
KRRS 030740Z 19010KT 21/17 A3002 RMK A01 T02120172  RH  082%=      5-min Rain = 0
KRRS 030745Z 19009KT 21/17 A3002 RMK A01 T02110172  RH  082%=      5-min Rain = 0
KRRS 030750Z 19009KT 21/17 A3002 RMK A01 T02110172  RH  082%=      5-min Rain = 0
KRRS 030755Z 20009KT 21/17 A3003 RMK A01 T02090171  RH  083%=      5-min Rain = 0
KRRS 030800Z 20008KT 21/17 A3002 RMK A01 T02070171  RH  084%=      5-min Rain = 0
KRRS 030805Z 20009KT 21/17 A3002 RMK A01 T02050170  RH  085%=      5-min Rain = 0
KRRS 030810Z 20009KT 20/17 A3002 RMK A01 T02040170  RH  085%=      5-min Rain = 0
KRRS 030815Z 21009KT 20/17 A3002 RMK A01 T02030170  RH  086%=      5-min Rain = 0
KRRS 030820Z 21009KT 20/17 A3002 RMK A01 T02040171  RH  085%=      5-min Rain = 0
KRRS 030825Z 21009KT 21/17 A3002 RMK A01 T02060171  RH  085%=      5-min Rain = 0
KRRS 030830Z 21008KT 21/17 A3002 RMK A01 T02050171  RH  085%=      5-min Rain = 0
KRRS 030835Z 20009KT 21/17 A3002 RMK A01 T02060172  RH  085%=      5-min Rain = 0
KRRS 030840Z 19009KT 21/17 A3002 RMK A01 T02070172  RH  085%=      5-min Rain = 0
KRRS 030845Z 19010KT 21/17 A3002 RMK A01 T02070172  RH  085%=      5-min Rain = 0
KRRS 030850Z 19008KT 21/17 A3002 RMK A01 T02060172  RH  085%=      5-min Rain = 0
KRRS 030855Z 19008KT 20/17 A3002 RMK A01 T02040171  RH  085%=      5-min Rain = 0
KRRS 030900Z 19008KT 20/17 A3002 RMK A01 T02030171  RH  086%=      5-min Rain = 0
KRRS 030905Z 20008KT 20/17 A3002 RMK A01 T02010171  RH  087%=      5-min Rain = 0
KRRS 030910Z 20008KT 20/17 A3002 RMK A01 T01980170  RH  088%=      5-min Rain = 0
KRRS 030915Z 21008KT 19/17 A3002 RMK A01 T01940169  RH  089%=      5-min Rain = 0
KRRS 030920Z 22008KT 19/17 A3002 RMK A01 T01910168  RH  091%=      5-min Rain = 0
KRRS 030925Z 22008KT 19/17 A3002 RMK A01 T01900168  RH  091%=      5-min Rain = 0
KRRS 030930Z 22007KT 19/17 A3002 RMK A01 T01900168  RH  092%=      5-min Rain = 0
KRRS 030935Z 22007KT 19/17 A3002 RMK A01 T01880167  RH  092%=      5-min Rain = 0
KRRS 030940Z 23007KT 19/17 A3002 RMK A01 T01860166  RH  093%=      5-min Rain = 0
KRRS 030945Z 22007KT 18/17 A3002 RMK A01 T01840165  RH  093%=      5-min Rain = 0
KRRS 030950Z 22008KT 18/17 A3002 RMK A01 T01820165  RH  094%=      5-min Rain = 0
KRRS 030955Z 22007KT 18/16 A3002 RMK A01 T01800164  RH  094%=      5-min Rain = 0
KRRS 031000Z 23008KT 18/16 A3002 RMK A01 T01800164  RH  095%=      5-min Rain = 0
KRRS 031005Z 24008KT 18/17 A3002 RMK A01 T01840166  RH  094%=      5-min Rain = 0
KRRS 031010Z 24008KT 19/17 A3002 RMK A01 T01860166  RH  092%=      5-min Rain = 0
KRRS 031015Z 25009KT 19/17 A3002 RMK A01 T01880166  RH  092%=      5-min Rain = 0
KRRS 031020Z 25009KT 19/17 A3002 RMK A01 T01890166  RH  091%=      5-min Rain = 0
KRRS 031025Z 24008KT 19/17 A3002 RMK A01 T01890166  RH  091%=      5-min Rain = 0
KRRS 031030Z 23008KT 19/17 A3002 RMK A01 T01890166  RH  091%=      5-min Rain = 0
KRRS 031035Z 23008KT 19/17 A3002 RMK A01 T01880166  RH  091%=      5-min Rain = 0
KRRS 031040Z 23007KT 19/17 A3002 RMK A01 T01870165  RH  092%=      5-min Rain = 0
KRRS 031045Z 22007KT 18/16 A3002 RMK A01 T01840164  RH  093%=      5-min Rain = 0
KRRS 031050Z 23008KT 18/17 A3002 RMK A01 T01830165  RH  093%=      5-min Rain = 0
KRRS 031055Z 23008KT 18/17 A3002 RMK A01 T01840165  RH  093%=      5-min Rain = 0
KRRS 031100Z 23008KT 19/17 A3002 RMK A01 T01860165  RH  092%=      5-min Rain = 0
KRRS 031105Z 22008KT 19/17 A3002 RMK A01 T01860165  RH  092%=      5-min Rain = 0
KRRS 031110Z 22008KT 18/16 A3002 RMK A01 T01830164  RH  093%=      5-min Rain = 0
KRRS 031115Z 21007KT 18/16 A3002 RMK A01 T01820163  RH  093%=      5-min Rain = 0
KRRS 031120Z 21007KT 18/16 A3002 RMK A01 T01790162  RH  094%=      5-min Rain = 0
KRRS 031125Z 21007KT 18/16 A3002 RMK A01 T01750160  RH  095%=      5-min Rain = 0
KRRS 031130Z 21007KT 17/16 A3002 RMK A01 T01740161  RH  097%=      5-min Rain = 0
KRRS 031135Z 21007KT 18/16 A3002 RMK A01 T01760162  RH  096%=      5-min Rain = 0
KRRS 031140Z 22007KT 18/16 A3002 RMK A01 T01770162  RH  096%=      5-min Rain = 0
KRRS 031145Z 22007KT 18/16 A3002 RMK A01 T01760162  RH  096%=      5-min Rain = 0
KRRS 031150Z 23007KT 18/16 A3002 RMK A01 T01760162  RH  096%=      5-min Rain = 0
KRRS 031155Z 22007KT 18/16 A3002 RMK A01 T01780163  RH  095%=      5-min Rain = 0
KRRS 031200Z 22007KT 18/16 A3002 RMK A01 T01810164  RH  095%=      5-min Rain = 0
KRRS 031205Z 23008KT 18/17 A3002 RMK A01 T01830165  RH  093%=      5-min Rain = 0
KRRS 031210Z 24008KT 19/17 A3002 RMK A01 T01880166  RH  092%=      5-min Rain = 0
KRRS 031215Z 23008KT 20/17 A3002 RMK A01 T01950168  RH  089%=      5-min Rain = 0
KRRS 031220Z 23009KT 20/17 A3002 RMK A01 T02010170  RH  086%=      5-min Rain = 0
KRRS 031225Z 22009KT 21/17 A3002 RMK A01 T02060171  RH  084%=      5-min Rain = 0
KRRS 031230Z 23008KT 21/17 A3002 RMK A01 T02100172  RH  083%=      5-min Rain = 0
KRRS 031235Z 23009KT 21/17 A3003 RMK A01 T02140173  RH  081%=      5-min Rain = 0
KRRS 031240Z 23009KT 22/17 A3003 RMK A01 T02180174  RH  080%=      5-min Rain = 0
KRRS 031245Z 23008KT 22/18 A3003 RMK A01 T02200175  RH  079%=      5-min Rain = 0
KRRS 031250Z 23009KT 22/18 A3003 RMK A01 T02240176  RH  078%=      5-min Rain = 0
KRRS 031255Z 23009KT 23/18 A3003 RMK A01 T02270177  RH  077%=      5-min Rain = 0
KRRS 031300Z 23011KT 23/18 A3003 RMK A01 T02300178  RH  076%=      5-min Rain = 0
KRRS 031305Z 23012KT 23/18 A3003 RMK A01 T02320179  RH  076%=      5-min Rain = 0
KRRS 031310Z 23012KT 24/18 A3003 RMK A01 T02350179  RH  075%=      5-min Rain = 0
KRRS 031315Z 22013KT 24/18 A3003 RMK A01 T02370180  RH  074%=      5-min Rain = 0
KRRS 031320Z 22012KT 24/18 A3003 RMK A01 T02390182  RH  074%=      5-min Rain = 0
KRRS 031325Z 22011KT 24/18 A3004 RMK A01 T02430184  RH  073%=      5-min Rain = 0
KRRS 031330Z 22015KT 24/18 A3003 RMK A01 T02440183  RH  073%=      5-min Rain = 0
KRRS 031335Z 23013KT 25/19 A3003 RMK A01 T02450185  RH  073%=      5-min Rain = 0
KRRS 031340Z 22014G20KT 25/19 A3004 RMK A01 T02460185  RH  073%=      5-min Rain = 0
KRRS 031345Z 22015KT 25/19 A3004 RMK A01 T02470186  RH  073%=      5-min Rain = 0
KRRS 031350Z 22014G19KT 25/19 A3003 RMK A01 T02500186  RH  071%=      5-min Rain = 0
KRRS 031355Z 23014G20KT 25/19 A3003 RMK A01 T02490186  RH  071%=      5-min Rain = 0
KRRS 031400Z 22012KT 25/19 A3003 RMK A01 T02520187  RH  071%=      5-min Rain = 0
KRRS 031405Z 23012KT 26/19 A3004 RMK A01 T02560188  RH  070%=      5-min Rain = 0
KRRS 031410Z 22011KT 26/19 A3004 RMK A01 T02580188  RH  069%=      5-min Rain = 0
KRRS 031415Z 23014KT 26/19 A3004 RMK A01 T02580186  RH  068%=      5-min Rain = 0
KRRS 031420Z 23014KT 26/19 A3004 RMK A01 T02560186  RH  069%=      5-min Rain = 0
KRRS 031425Z 23013KT 26/19 A3004 RMK A01 T02580186  RH  068%=      5-min Rain = 0
KRRS 031430Z 23012KT 26/19 A3004 RMK A01 T02620188  RH  067%=      5-min Rain = 0
KRRS 031435Z 22013KT 26/19 A3003 RMK A01 T02620187  RH  067%=      5-min Rain = 0
KRRS 031440Z 22012KT 27/19 A3003 RMK A01 T02650188  RH  066%=      5-min Rain = 0
KRRS 031445Z 22014KT 27/19 A3003 RMK A01 T02660187  RH  065%=      5-min Rain = 0
KRRS 031450Z 22014KT 27/19 A3003 RMK A01 T02660186  RH  065%=      5-min Rain = 0
KRRS 031455Z 22013KT 27/19 A3003 RMK A01 T02690187  RH  064%=      5-min Rain = 0
KRRS 031500Z 23013KT 27/19 A3003 RMK A01 T02710187  RH  063%=      5-min Rain = 0
KRRS 031505Z 21012KT 27/19 A3003 RMK A01 T02730188  RH  063%=      5-min Rain = 0
KRRS 031510Z 21013G18KT 28/19 A3003 RMK A01 T02750187  RH  062%=      5-min Rain = 0
KRRS 031515Z 23011KT 28/19 A3003 RMK A01 T02770190  RH  062%=      5-min Rain = 0
KRRS 031520Z 22012KT 28/19 A3003 RMK A01 T02770187  RH  062%=      5-min Rain = 0
KRRS 031525Z 22013KT 28/19 A3003 RMK A01 T02780187  RH  061%=      5-min Rain = 0
KRRS 031530Z 21010G15KT 28/19 A3003 RMK A01 T02820189  RH  060%=      5-min Rain = 0
KRRS 031535Z 21011KT 29/19 A3003 RMK A01 T02870189  RH  058%=      5-min Rain = 0
KRRS 031540Z 21011KT 29/19 A3003 RMK A01 T02870188  RH  058%=      5-min Rain = 0
KRRS 031545Z 23010KT 29/19 A3003 RMK A01 T02860186  RH  058%=      5-min Rain = 0
KRRS 031550Z 22009KT 29/19 A3003 RMK A01 T02870187  RH  058%=      5-min Rain = 0
KRRS 031555Z 23010KT 29/19 A3002 RMK A01 T02910187  RH  057%=      5-min Rain = 0
KRRS 031600Z 21009KT 29/19 A3002 RMK A01 T02900187  RH  057%=      5-min Rain = 0
KRRS 031605Z 22010KT 29/19 A3002 RMK A01 T02930185  RH  055%=      5-min Rain = 0
KRRS 031610Z 23009KT 30/19 A3002 RMK A01 T02950187  RH  055%=      5-min Rain = 0
KRRS 031615Z 22008G14KT 30/19 A3002 RMK A01 T02950186  RH  055%=      5-min Rain = 0
KRRS 031620Z 22009G14KT 30/18 A3002 RMK A01 T02960184  RH  054%=      5-min Rain = 0
KRRS 031625Z 21008KT 30/18 A3002 RMK A01 T02990183  RH  053%=      5-min Rain = 0
KRRS 031630Z 23010KT 30/18 A3002 RMK A01 T03000183  RH  052%=      5-min Rain = 0
KRRS 031635Z 24009KT 30/18 A3002 RMK A01 T03000183  RH  052%=      5-min Rain = 0
KRRS 031640Z 25007G14KT 30/18 A3002 RMK A01 T03000181  RH  051%=      5-min Rain = 0
KRRS 031645Z 24006KT 30/18 A3002 RMK A01 T03030180  RH  050%=      5-min Rain = 0
KRRS 031650Z 25006KT 31/18 A3002 RMK A01 T03050181  RH  050%=      5-min Rain = 0
KRRS 031655Z 20008KT 31/18 A3002 RMK A01 T03060179  RH  049%=      5-min Rain = 0
KRRS 031700Z 19007KT 31/18 A3002 RMK A01 T03090176  RH  047%=      5-min Rain = 0
KRRS 031705Z 20008KT 31/18 A3002 RMK A01 T03080177  RH  048%=      5-min Rain = 0
KRRS 031710Z 19007KT 31/18 A3002 RMK A01 T03090177  RH  048%=      5-min Rain = 0
KRRS 031715Z 20005KT 31/18 A3002 RMK A01 T03120176  RH  046%=      5-min Rain = 0
KRRS 031720Z 20005KT 31/18 A3002 RMK A01 T03110175  RH  047%=      5-min Rain = 0
KRRS 031725Z 19008KT 31/17 A3002 RMK A01 T03110173  RH  046%=      5-min Rain = 0
KRRS 031730Z 19006KT 31/17 A3002 RMK A01 T03120168  RH  044%=      5-min Rain = 0
KRRS 031735Z 16003KT 31/17 A3001 RMK A01 T03130170  RH  045%=      5-min Rain = 0
KRRS 031740Z 23007G14KT 32/17 A3001 RMK A01 T03190172  RH  044%=      5-min Rain = 0
KRRS 031745Z 24007G13KT 32/17 A3001 RMK A01 T03160170  RH  044%=      5-min Rain = 0
KRRS 031750Z 24005G10KT 32/17 A3001 RMK A01 T03210168  RH  042%=      5-min Rain = 0
KRRS 031755Z 24005KT 32/17 A3001 RMK A01 T03220173  RH  043%=      5-min Rain = 0
KRRS 031800Z 27006KT 32/17 A3001 RMK A01 T03180167  RH  042%=      5-min Rain = 0
KRRS 031805Z 26005KT 32/17 A30 RMK A01 T03170168  RH  043%=      5-min Rain = 0
KRRS 031810Z 23006G14KT 32/17 A30 RMK A01 T03200169  RH  043%=      5-min Rain = 0
KRRS 031815Z 22009KT 32/17 A30 RMK A01 T03180169  RH  043%=      5-min Rain = 0
KRRS 031820Z 22007KT 31/17 A30 RMK A01 T03130167  RH  043%=      5-min Rain = 0
KRRS 031825Z 22008G13KT 32/17 A2999 RMK A01 T03170167  RH  043%=      5-min Rain = 0
KRRS 031830Z 23007G12KT 32/17 A2999 RMK A01 T03160170  RH  044%=      5-min Rain = 0
KRRS 031835Z 25005KT 32/17 A2999 RMK A01 T03220169  RH  042%=      5-min Rain = 0
KRRS 031840Z 21007G15KT 32/17 A2999 RMK A01 T03240169  RH  042%=      5-min Rain = 0
KRRS 031845Z 18008KT 33/17 A2999 RMK A01 T03300169  RH  040%=      5-min Rain = 0
KRRS 031850Z 15002G7KT 33/17 A2998 RMK A01 T03280168  RH  040%=      5-min Rain = 0
KRRS 031855Z 22006G14KT 33/17 A2998 RMK A01 T03320170  RH  040%=      5-min Rain = 0
KRRS 031900Z 23008G13KT 33/17 A2998 RMK A01 T03280170  RH  041%=      5-min Rain = 0
KRRS 031905Z 20005KT 33/17 A2998 RMK A01 T03270169  RH  041%=      5-min Rain = 0
KRRS 031910Z 18008KT 33/17 A2997 RMK A01 T03330174  RH  041%=      5-min Rain = 0
KRRS 031915Z 17008G14KT 33/17 A2997 RMK A01 T03340174  RH  041%=      5-min Rain = 0
KRRS 031920Z 17007G13KT 33/17 A2997 RMK A01 T03330174  RH  041%=      5-min Rain = 0
KRRS 031925Z 17009G14KT 34/17 A2997 RMK A01 T03400172  RH  039%=      5-min Rain = 0
KRRS 031930Z 17008KT 34/17 A2996 RMK A01 T03380166  RH  038%=      5-min Rain = 0
KRRS 031935Z 18013KT 34/17 A2996 RMK A01 T03360166  RH  038%=      5-min Rain = 0
KRRS 031940Z 17009G14KT 34/16 A2996 RMK A01 T03360163  RH  037%=      5-min Rain = 0
KRRS 031945Z 17008G13KT 34/16 A2996 RMK A01 T03380163  RH  037%=      5-min Rain = 0
KRRS 031950Z 16009KT 34/16 A2996 RMK A01 T03410160  RH  036%=      5-min Rain = 0
KRRS 031955Z 13006G11KT 34/15 A2996 RMK A01 T03370153  RH  035%=      5-min Rain = 0
KRRS 032000Z 15008G14KT 34/16 A2995 RMK A01 T03390157  RH  035%=      5-min Rain = 0
KRRS 032005Z 13009G15KT 34/16 A2995 RMK A01 T03380156  RH  035%=      5-min Rain = 0
KRRS 032010Z 15010G18KT 34/16 A2995 RMK A01 T03430156  RH  034%=      5-min Rain = 0
KRRS 032015Z 14010KT 34/15 A2995 RMK A01 T03400151  RH  034%=      5-min Rain = 0
KRRS 032020Z 14008KT 34/15 A2995 RMK A01 T03380150  RH  034%=      5-min Rain = 0
KRRS 032025Z 14005G10KT 34/15 A2995 RMK A01 T03420149  RH  033%=      5-min Rain = 0
KRRS 032030Z 16010G15KT 34/16 A2995 RMK A01 T03400158  RH  035%=      5-min Rain = 0
KRRS 032035Z 15008G25KT 34/16 A2995 RMK A01 T03410159  RH  035%=      5-min Rain = 0
KRRS 032040Z 17009KT 34/15 A2995 RMK A01 T03410154  RH  034%=      5-min Rain = 0
KRRS 032045Z 15009G15KT 34/15 A2994 RMK A01 T03430153  RH  034%=      5-min Rain = 0
KRRS 032050Z 15010KT 34/15 A2994 RMK A01 T03400148  RH  033%=      5-min Rain = 0
KRRS 032055Z 15007G12KT 34/15 A2994 RMK A01 T03390148  RH  033%=      5-min Rain = 0
KRRS 032100Z 14007KT 34/15 A2994 RMK A01 T03400148  RH  033%=      5-min Rain = 0
KRRS 032105Z 14010G15KT 34/15 A2993 RMK A01 T03380148  RH  033%=      5-min Rain = 0
KRRS 032110Z 17011KT 34/15 A2993 RMK A01 T03390148  RH  033%=      5-min Rain = 0
KRRS 032115Z 15009KT 33/14 A2993 RMK A01 T03340142  RH  033%=      5-min Rain = 0
KRRS 032120Z 15010G19KT 34/15 A2993 RMK A01 T03390149  RH  034%=      5-min Rain = 0
KRRS 032125Z 15012KT 34/15 A2992 RMK A01 T03420145  RH  032%=      5-min Rain = 0
KRRS 032130Z 13008G14KT 34/15 A2992 RMK A01 T03430145  RH  032%=      5-min Rain = 0
KRRS 032135Z 14009G14KT 34/14 A2992 RMK A01 T03350139  RH  032%=      5-min Rain = 0
KRRS 032140Z 14011G17KT 34/15 A2992 RMK A01 T03360145  RH  033%=      5-min Rain = 0
KRRS 032145Z 17009G15KT 34/14 A2992 RMK A01 T03400143  RH  032%=      5-min Rain = 0
KRRS 032150Z 18006G11KT 34/15 A2992 RMK A01 T03410147  RH  033%=      5-min Rain = 0
KRRS 032155Z 15011KT 34/15 A2992 RMK A01 T03420149  RH  033%=      5-min Rain = 0
KRRS 032200Z 15012G18KT 34/15 A2991 RMK A01 T03420147  RH  033%=      5-min Rain = 0
KRRS 032205Z 14010KT 34/15 A2991 RMK A01 T03430146  RH  032%=      5-min Rain = 0
KRRS 032210Z 17007G13KT 34/15 A2991 RMK A01 T03420145  RH  032%=      5-min Rain = 0
KRRS 032215Z 16009G15KT 34/15 A2991 RMK A01 T03420146  RH  032%=      5-min Rain = 0
KRRS 032220Z 15012KT 34/15 A299 RMK A01 T03430150  RH  033%=      5-min Rain = 0
KRRS 032225Z 17011G16KT 34/15 A299 RMK A01 T03420149  RH  033%=      5-min Rain = 0
KRRS 032230Z 16012G17KT 34/15 A299 RMK A01 T03410146  RH  032%=      5-min Rain = 0
KRRS 032235Z 16011KT 34/15 A299 RMK A01 T03440149  RH  033%=      5-min Rain = 0
KRRS 032240Z 17009KT 34/14 A299 RMK A01 T03420144  RH  032%=      5-min Rain = 0
KRRS 032245Z 15010G15KT 33/14 A299 RMK A01 T03340141  RH  033%=      5-min Rain = 0
KRRS 032250Z 18009G14KT 33/14 A299 RMK A01 T03300142  RH  034%=      5-min Rain = 0
KRRS 032255Z 18009G14KT 33/14 A299 RMK A01 T03300142  RH  034%=      5-min Rain = 0
KRRS 032300Z 18009G14KT 33/14 A299 RMK A01 T03270142  RH  034%=      5-min Rain = 0
KRRS 032305Z 19011KT 33/14 A299 RMK A01 T03250139  RH  034%=      5-min Rain = 0
KRRS 032310Z 18008G13KT 32/14 A299 RMK A01 T03240137  RH  034%=      5-min Rain = 0
KRRS 032315Z 17010KT 32/14 A299 RMK A01 T03230140  RH  034%=      5-min Rain = 0
KRRS 032320Z 18007KT 32/14 A2991 RMK A01 T03220140  RH  035%=      5-min Rain = 0
KRRS 032325Z 18007G12KT 32/14 A2991 RMK A01 T03210143  RH  036%=      5-min Rain = 0
KRRS 032330Z 19009KT 32/14 A2991 RMK A01 T03200144  RH  036%=      5-min Rain = 0
KRRS 032335Z 18007KT 32/15 A2991 RMK A01 T03190145  RH  037%=      5-min Rain = 0
KRRS 032340Z 20005KT 32/15 A2991 RMK A01 T03170148  RH  038%=      5-min Rain = 0
KRRS 032345Z 22005KT 32/15 A2991 RMK A01 T03150149  RH  038%=      5-min Rain = 0
KRRS 032350Z 20007KT 32/15 A299 RMK A01 T03150146  RH  038%=      5-min Rain = 0
KRRS 032355Z 21005KT 31/15 A299 RMK A01 T03130148  RH  038%=      5-min Rain = 0
KRRS 040000Z 27006G11KT 31/15 A299 RMK A01 T03120150  RH  039%=      5-min Rain = 0
KRRS 040005Z 28009KT 30/16 A299 RMK A01 T02990160  RH  045%=      5-min Rain = 0
KRRS 040010Z 28008KT 29/16 A299 RMK A01 T02910162  RH  048%=      5-min Rain = 0
KRRS 040015Z 27008KT 29/16 A299 RMK A01 T02870164  RH  050%=      5-min Rain = 0
KRRS 040020Z 27006KT 28/17 A2989 RMK A01 T02830166  RH  052%=      5-min Rain = 0
KRRS 040025Z 24004KT 28/17 A2989 RMK A01 T02820166  RH  052%=      5-min Rain = 0
KRRS 040030Z 23003KT 28/17 A2989 RMK A01 T02820167  RH  052%=      5-min Rain = 0
KRRS 040035Z 20003KT 28/17 A2988 RMK A01 T02820167  RH  052%=      5-min Rain = 0
KRRS 040040Z 20003KT 28/17 A2988 RMK A01 T02820168  RH  052%=      5-min Rain = 0
KRRS 040045Z 18003KT 28/17 A2988 RMK A01 T02820167  RH  052%=      5-min Rain = 0
KRRS 040050Z 17004KT 28/17 A2988 RMK A01 T02840165  RH  051%=      5-min Rain = 0
KRRS 040055Z 17004KT 29/16 A2988 RMK A01 T02870163  RH  049%=      5-min Rain = 0
KRRS 040100Z 17004KT 29/16 A2988 RMK A01 T02910163  RH  048%=      5-min Rain = 0
KRRS 040105Z 17004KT 29/17 A2988 RMK A01 T02940165  RH  048%=      5-min Rain = 0
KRRS 040110Z 17005KT 30/16 A2988 RMK A01 T02990160  RH  045%=      5-min Rain = 0
KRRS 040115Z 17005KT 30/16 A2988 RMK A01 T03030158  RH  043%=      5-min Rain = 0
KRRS 040120Z 17005KT 31/16 A2988 RMK A01 T03050157  RH  043%=      5-min Rain = 0
KRRS 040125Z 17006KT 30/16 A2988 RMK A01 T03040157  RH  043%=      5-min Rain = 0
KRRS 040130Z 17007KT 30/15 A2988 RMK A01 T03040151  RH  041%=      5-min Rain = 0
KRRS 040135Z 18007KT 30/15 A2989 RMK A01 T03030151  RH  042%=      5-min Rain = 0
KRRS 040140Z 18007KT 30/15 A2989 RMK A01 T03010153  RH  043%=      5-min Rain = 0
KRRS 040145Z 18007KT 30/15 A2989 RMK A01 T02980154  RH  044%=      5-min Rain = 0
KRRS 040150Z 18007KT 29/15 A2989 RMK A01 T02940154  RH  045%=      5-min Rain = 0
KRRS 040155Z 18007KT 29/16 A2989 RMK A01 T02910155  RH  045%=      5-min Rain = 0
KRRS 040200Z 18007KT 29/16 A2989 RMK A01 T02890155  RH  046%=      5-min Rain = 0
KRRS 040205Z 18007KT 29/16 A2989 RMK A01 T02870155  RH  047%=      5-min Rain = 0
KRRS 040210Z 18007KT 29/15 A299 RMK A01 T02870154  RH  047%=      5-min Rain = 0
KRRS 040215Z 18006KT 28/16 A299 RMK A01 T02840155  RH  048%=      5-min Rain = 0
KRRS 040220Z 18006KT 28/16 A299 RMK A01 T02790156  RH  049%=      5-min Rain = 0
KRRS 040225Z 18006KT 27/16 A299 RMK A01 T02730157  RH  051%=      5-min Rain = 0
KRRS 040230Z 18006KT 27/16 A299 RMK A01 T02690157  RH  053%=      5-min Rain = 0
KRRS 040235Z 18006KT 27/16 A299 RMK A01 T02650157  RH  054%=      5-min Rain = 0
KRRS 040240Z 18007KT 26/16 A299 RMK A01 T02630157  RH  055%=      5-min Rain = 0
KRRS 040245Z 18007KT 26/16 A299 RMK A01 T02600157  RH  056%=      5-min Rain = 0
KRRS 040250Z 18007KT 26/16 A299 RMK A01 T02560158  RH  057%=      5-min Rain = 0
KRRS 040255Z 18006KT 26/16 A299 RMK A01 T02560158  RH  057%=      5-min Rain = 0
KRRS 040300Z 18007KT 26/16 A299 RMK A01 T02550158  RH  058%=      5-min Rain = 0
KRRS 040305Z 18008KT 25/16 A299 RMK A01 T02540158  RH  058%=      5-min Rain = 0
KRRS 040310Z 17007KT 26/16 A299 RMK A01 T02550159  RH  058%=      5-min Rain = 0
KRRS 040315Z 18007KT 25/16 A299 RMK A01 T02540159  RH  059%=      5-min Rain = 0
KRRS 040320Z 18007KT 25/16 A299 RMK A01 T02530160  RH  059%=      5-min Rain = 0
KRRS 040325Z 18007KT 25/16 A299 RMK A01 T02510160  RH  060%=      5-min Rain = 0
KRRS 040330Z 18007KT 25/16 A2991 RMK A01 T02500160  RH  060%=      5-min Rain = 0
KRRS 040335Z 18007KT 25/16 A2991 RMK A01 T02490160  RH  060%=      5-min Rain = 0
KRRS 040340Z 19006KT 25/16 A2991 RMK A01 T02500160  RH  060%=      5-min Rain = 0
KRRS 040345Z 20007KT 25/16 A2992 RMK A01 T02480160  RH  061%=      5-min Rain = 0
KRRS 040350Z 19007KT 25/16 A2992 RMK A01 T02460160  RH  062%=      5-min Rain = 0
KRRS 040355Z 20007KT 25/16 A2992 RMK A01 T02490160  RH  061%=      5-min Rain = 0
KRRS 040400Z 20006KT 25/16 A2992 RMK A01 T02490160  RH  061%=      5-min Rain = 0
KRRS 040405Z 20005KT 25/16 A2992 RMK A01 T02460160  RH  062%=      5-min Rain = 0
KRRS 040410Z 20006KT 24/16 A2992 RMK A01 T02440160  RH  062%=      5-min Rain = 0
KRRS 040415Z 19007KT 25/16 A2992 RMK A01 T02450160  RH  062%=      5-min Rain = 0
KRRS 040420Z 18006KT 25/16 A2992 RMK A01 T02460161  RH  062%=      5-min Rain = 0
KRRS 040425Z 19007KT 25/16 A2992 RMK A01 T02460161  RH  062%=      5-min Rain = 0
KRRS 040430Z 19007KT 25/16 A2992 RMK A01 T02450161  RH  062%=      5-min Rain = 0
KRRS 040435Z 18006KT 24/16 A2992 RMK A01 T02420161  RH  063%=      5-min Rain = 0
KRRS 040440Z 19006KT 24/16 A2992 RMK A01 T02420161  RH  064%=      5-min Rain = 0
KRRS 040445Z 19006KT 24/16 A2992 RMK A01 T02410160  RH  064%=      5-min Rain = 0
KRRS 040450Z 19006KT 24/16 A2992 RMK A01 T02410160  RH  063%=      5-min Rain = 0
KRRS 040455Z 19006KT 24/16 A2992 RMK A01 T02400160  RH  064%=      5-min Rain = 0

Page generated in 0.0091 seconds.